createdAt,value
2022-11-04T00:01:58.455Z,77.70
2022-11-04T00:04:28.784Z,77.60
2022-11-04T00:06:57.558Z,77.68
2022-11-04T00:09:30.467Z,77.70
2022-11-04T00:12:17.185Z,77.85
2022-11-04T00:14:45.287Z,77.89
2022-11-04T00:17:19.764Z,77.96
2022-11-04T00:20:09.459Z,78.01
2022-11-04T00:22:57.167Z,78.05
2022-11-04T00:25:44.669Z,78.10
2022-11-04T00:28:36.947Z,78.20
2022-11-04T00:31:26.505Z,78.24
2022-11-04T00:33:57.096Z,78.15
2022-11-04T00:36:26.625Z,78.24
2022-11-04T00:38:54.906Z,78.34
2022-11-04T00:41:30.177Z,78.26
2022-11-04T00:44:04.856Z,78.41
2022-11-04T00:46:34.720Z,78.51
2022-11-04T00:49:02.994Z,78.60
2022-11-04T00:51:30.976Z,78.64
2022-11-04T00:53:59.110Z,78.63
2022-11-04T00:56:27.150Z,78.77
2022-11-04T00:58:55.204Z,78.71
2022-11-04T01:01:23.496Z,78.69
2022-11-04T01:03:53.696Z,78.70
2022-11-04T01:06:24.047Z,78.77
2022-11-04T01:08:56.907Z,78.88
2022-11-04T01:11:25.219Z,78.90
2022-11-04T01:13:53.248Z,78.90
2022-11-04T01:16:22.178Z,78.75
2022-11-04T01:18:50.542Z,78.93
2022-11-04T01:21:18.606Z,78.93
2022-11-04T01:23:47.236Z,78.92
2022-11-04T01:26:21.926Z,79.05
2022-11-04T01:28:51.210Z,78.96
2022-11-04T01:31:22.260Z,78.99
2022-11-04T01:33:51.232Z,78.90
2022-11-04T01:36:20.531Z,78.97
2022-11-04T01:38:48.669Z,79.07
2022-11-04T01:41:20.567Z,79.02
2022-11-04T01:44:09.635Z,78.97
2022-11-04T01:46:49.377Z,78.95
2022-11-04T01:49:17.578Z,79.02
2022-11-04T01:51:48.974Z,78.99
2022-11-04T01:54:18.485Z,79.11
2022-11-04T01:56:48.680Z,79.04
2022-11-04T01:59:22.979Z,79.15
2022-11-04T02:03:14.368Z,79.12
2022-11-04T02:05:43.974Z,79.21
2022-11-04T02:08:14.199Z,79.27
2022-11-04T02:10:51.778Z,79.38
2022-11-04T02:13:20.200Z,79.43
2022-11-04T02:16:04.742Z,79.34
2022-11-04T02:18:44.982Z,79.26
2022-11-04T02:21:30.212Z,79.31
2022-11-04T02:24:10.338Z,79.36
2022-11-04T02:26:53.726Z,79.44
2022-11-04T02:29:43.144Z,79.44
2022-11-04T02:32:27.365Z,79.52
2022-11-04T02:35:05.168Z,79.59
2022-11-04T02:40:40.323Z,79.64
2022-11-04T02:43:36.594Z,79.69
2022-11-04T02:46:15.799Z,79.66
2022-11-04T02:48:56.686Z,79.71
2022-11-04T02:51:24.597Z,79.71
2022-11-04T02:54:07.941Z,79.77
2022-11-04T02:56:41.268Z,79.82
2022-11-04T02:59:18.245Z,79.90
2022-11-04T03:01:48.565Z,79.86
2022-11-04T03:04:22.037Z,80.04
2022-11-04T03:06:51.738Z,80.00
2022-11-04T03:09:22.551Z,80.11
2022-11-04T03:12:02.787Z,80.20
2022-11-04T03:14:36.979Z,80.22
2022-11-04T03:17:12.329Z,80.29
2022-11-04T03:19:40.344Z,80.39
2022-11-04T03:22:12.792Z,80.52
2022-11-04T03:24:42.720Z,80.59
2022-11-04T03:27:27.289Z,80.67
2022-11-04T03:30:19.801Z,80.54
2022-11-04T03:33:03.057Z,80.70
2022-11-04T03:35:31.980Z,80.71
2022-11-04T03:38:00.470Z,80.76
2022-11-04T03:40:28.839Z,81.05
2022-11-04T03:43:04.221Z,80.94
2022-11-04T03:45:32.284Z,81.02
2022-11-04T03:48:01.041Z,81.23
2022-11-04T03:50:35.833Z,81.22
2022-11-04T03:53:04.102Z,81.21
2022-11-04T03:55:44.752Z,81.31
2022-11-04T03:58:23.492Z,81.28
2022-11-04T04:01:00.379Z,81.44
2022-11-04T04:03:40.860Z,81.59
2022-11-04T04:06:24.606Z,81.55
2022-11-04T04:09:19.213Z,81.59
2022-11-04T04:12:04.403Z,81.56
2022-11-04T04:14:49.502Z,81.52
2022-11-04T04:17:29.857Z,81.44
2022-11-04T04:20:09.188Z,81.66
2022-11-04T04:22:42.137Z,81.55
2022-11-04T04:25:31.028Z,81.46
2022-11-04T04:28:01.294Z,81.59
2022-11-04T04:30:30.378Z,81.68
2022-11-04T04:33:05.757Z,81.53
2022-11-04T04:35:53.047Z,81.52
2022-11-04T04:38:45.742Z,81.66
2022-11-04T04:41:46.051Z,81.55
2022-11-04T04:44:39.376Z,81.68
2022-11-04T04:47:09.638Z,81.59
2022-11-04T04:49:37.689Z,81.68
2022-11-04T04:52:08.096Z,81.66
2022-11-04T04:54:36.389Z,81.57
2022-11-04T04:57:04.406Z,81.63
2022-11-04T04:59:32.447Z,81.45
2022-11-04T05:02:00.727Z,81.49
2022-11-04T05:04:28.929Z,81.55
2022-11-04T05:06:56.948Z,81.47
2022-11-04T05:09:25.617Z,81.43
2022-11-04T05:11:54.090Z,81.34
2022-11-04T05:14:22.136Z,81.44
2022-11-04T05:16:50.376Z,81.53
2022-11-04T05:19:18.478Z,81.46
2022-11-04T05:21:46.564Z,81.53
2022-11-04T05:24:15.020Z,81.66
2022-11-04T05:26:43.133Z,81.60
2022-11-04T05:29:12.495Z,81.61
2022-11-04T05:31:40.636Z,81.59
2022-11-04T05:34:10.978Z,81.67
2022-11-04T05:36:39.619Z,81.90
2022-11-04T05:39:08.171Z,81.94
2022-11-04T05:41:36.269Z,82.09
2022-11-04T05:44:04.712Z,82.27
2022-11-04T05:46:32.861Z,82.35
2022-11-04T05:49:00.990Z,82.45
2022-11-04T05:51:29.689Z,82.40
2022-11-04T05:53:57.853Z,82.43
2022-11-04T05:56:25.895Z,82.38
2022-11-04T05:58:54.282Z,82.26
2022-11-04T06:01:43.947Z,82.26
2022-11-04T06:04:19.255Z,82.24
2022-11-04T06:06:47.505Z,82.27
2022-11-04T06:09:15.547Z,82.17
2022-11-04T06:11:43.961Z,82.08
2022-11-04T06:14:18.402Z,81.96
2022-11-04T06:16:46.929Z,82.02
2022-11-04T06:19:16.339Z,81.74
2022-11-04T06:21:44.535Z,81.88
2022-11-04T06:24:12.607Z,81.76
2022-11-04T06:26:40.849Z,81.81
2022-11-04T06:29:10.033Z,81.88
2022-11-04T06:31:38.458Z,81.85
2022-11-04T06:34:06.526Z,81.77
2022-11-04T06:36:34.568Z,81.62
2022-11-04T06:39:05.472Z,81.62
2022-11-04T06:41:33.702Z,81.58
2022-11-04T06:44:01.792Z,81.60
2022-11-04T06:46:32.994Z,81.61
2022-11-04T06:49:01.441Z,81.64
2022-11-04T06:51:29.655Z,81.69
2022-11-04T06:53:57.707Z,81.72
2022-11-04T06:56:26.181Z,81.77
2022-11-04T06:58:55.356Z,81.77
2022-11-04T07:01:27.441Z,81.52
2022-11-04T07:03:58.025Z,81.57
2022-11-04T07:06:27.233Z,81.60
2022-11-04T07:08:58.652Z,81.70
2022-11-04T07:11:28.399Z,81.43
2022-11-04T07:13:56.734Z,81.34
2022-11-04T07:16:25.181Z,81.20
2022-11-04T07:18:56.572Z,81.07
2022-11-04T07:21:24.665Z,81.19
2022-11-04T07:23:52.849Z,81.19
2022-11-04T07:26:21.609Z,81.04
2022-11-04T07:28:49.955Z,81.10
2022-11-04T07:31:18.649Z,81.21
2022-11-04T07:33:50.217Z,81.18
2022-11-04T07:36:19.612Z,81.07
2022-11-04T07:38:48.120Z,81.02
2022-11-04T07:41:18.064Z,81.01
2022-11-04T07:43:51.035Z,80.83
2022-11-04T07:46:20.381Z,80.93
2022-11-04T07:48:48.471Z,80.90
2022-11-04T07:51:20.066Z,80.99
2022-11-04T07:53:48.494Z,81.01
2022-11-04T07:56:17.112Z,80.96
2022-11-04T07:58:45.530Z,80.81
2022-11-04T08:01:16.474Z,80.87
2022-11-04T08:03:44.885Z,80.72
2022-11-04T08:06:14.943Z,80.72
2022-11-04T08:08:43.991Z,80.63
2022-11-04T08:11:17.663Z,80.47
2022-11-04T08:13:47.667Z,80.29
2022-11-04T08:16:19.072Z,80.26
2022-11-04T08:18:48.856Z,80.33
2022-11-04T08:21:17.336Z,80.28
2022-11-04T08:23:46.264Z,80.10
2022-11-04T08:26:19.444Z,80.14
2022-11-04T08:28:47.816Z,80.04
2022-11-04T08:31:22.630Z,80.17
2022-11-04T08:33:51.289Z,80.27
2022-11-04T08:36:23.098Z,80.12
2022-11-04T08:38:53.124Z,80.08
2022-11-04T08:41:29.798Z,80.08
2022-11-04T08:44:00.953Z,79.94
2022-11-04T08:46:32.629Z,80.02
2022-11-04T08:49:01.175Z,79.90
2022-11-04T08:51:33.170Z,79.89
2022-11-04T08:54:01.633Z,79.93
2022-11-04T08:56:32.521Z,79.67
2022-11-04T08:59:05.005Z,79.55
2022-11-04T09:01:36.115Z,79.51
2022-11-04T09:04:05.795Z,79.33
2022-11-04T09:06:38.117Z,79.36
2022-11-04T09:09:08.669Z,79.42
2022-11-04T09:11:39.427Z,79.24
2022-11-04T09:14:08.196Z,79.46
2022-11-04T09:16:38.331Z,79.50
2022-11-04T09:19:07.198Z,79.30
2022-11-04T09:21:35.704Z,79.61
2022-11-04T09:24:04.739Z,79.59
2022-11-04T09:26:33.043Z,79.45
2022-11-04T09:29:01.207Z,79.36
2022-11-04T09:31:30.514Z,79.34
2022-11-04T09:33:58.735Z,79.24
2022-11-04T09:36:26.838Z,79.50
2022-11-04T09:38:55.523Z,79.32
2022-11-04T09:41:38.517Z,79.38
2022-11-04T09:44:19.088Z,79.18
2022-11-04T09:46:49.543Z,79.07
2022-11-04T09:49:17.998Z,79.19
2022-11-04T09:51:54.341Z,79.09
2022-11-04T09:54:53.169Z,79.06
2022-11-04T09:57:21.319Z,79.11
2022-11-04T09:59:49.643Z,79.04
2022-11-04T10:02:30.859Z,79.10
2022-11-04T10:05:13.609Z,79.10
2022-11-04T10:08:09.390Z,79.28
2022-11-04T10:10:41.487Z,79.17
2022-11-04T10:13:12.605Z,79.26
2022-11-04T10:16:11.046Z,79.37
2022-11-04T10:18:46.191Z,79.38
2022-11-04T10:21:20.409Z,79.42
2022-11-04T10:24:27.179Z,79.45
2022-11-04T10:27:03.117Z,79.19
2022-11-04T10:29:41.147Z,79.33
2022-11-04T10:32:38.630Z,79.00
2022-11-04T10:35:44.379Z,78.94
2022-11-04T10:38:30.045Z,78.80
2022-11-04T10:41:01.633Z,78.71
2022-11-04T10:43:38.575Z,78.75
2022-11-04T10:46:15.606Z,78.68
2022-11-04T10:49:06.904Z,78.63
2022-11-04T10:51:34.868Z,78.52
2022-11-04T10:54:08.972Z,78.58
2022-11-04T10:56:54.740Z,78.56
2022-11-04T10:59:34.853Z,78.61
2022-11-04T11:02:03.913Z,78.52
2022-11-04T11:04:37.317Z,78.52
2022-11-04T11:07:09.143Z,78.36
2022-11-04T11:09:42.501Z,78.48
2022-11-04T11:12:36.690Z,78.30
2022-11-04T11:15:26.311Z,78.36
2022-11-04T11:18:01.395Z,78.39
2022-11-04T11:20:32.520Z,78.41
2022-11-04T11:23:04.794Z,78.30
2022-11-04T11:25:34.673Z,78.39
2022-11-04T11:28:05.675Z,78.24
2022-11-04T11:30:33.989Z,78.26
2022-11-04T11:33:07.147Z,78.53
2022-11-04T11:35:41.628Z,78.53
2022-11-04T11:38:23.359Z,78.66
2022-11-04T11:41:22.832Z,78.46
2022-11-04T11:43:49.464Z,78.46
2022-11-04T11:46:25.018Z,78.48
2022-11-04T11:48:57.753Z,78.55
2022-11-04T11:51:32.068Z,78.43
2022-11-04T11:54:17.602Z,78.48
2022-11-04T11:57:13.409Z,78.47
2022-11-04T12:02:59.451Z,78.48
2022-11-04T12:11:58.631Z,78.63
2022-11-04T12:14:48.863Z,78.65
2022-11-04T12:17:41.733Z,78.64
2022-11-04T12:20:37.469Z,78.66
2022-11-04T12:23:12.149Z,78.67
2022-11-04T12:25:45.961Z,78.56
2022-11-04T12:28:42.105Z,78.75
2022-11-04T12:31:23.549Z,78.67
2022-11-04T12:34:21.235Z,78.92
2022-11-04T12:37:13.410Z,78.87
2022-11-04T12:39:52.803Z,78.86
2022-11-04T12:42:38.229Z,78.76
2022-11-04T12:45:18.719Z,78.79
2022-11-04T12:47:50.513Z,78.74
2022-11-04T12:50:27.641Z,78.67
2022-11-04T12:53:17.243Z,78.50
2022-11-04T12:55:45.511Z,78.68
2022-11-04T12:58:41.681Z,78.55
2022-11-04T13:01:25.681Z,78.68
2022-11-04T13:04:03.618Z,78.61
2022-11-04T13:06:40.538Z,78.60
2022-11-04T13:09:15.392Z,78.68
2022-11-04T13:11:56.920Z,78.46
2022-11-04T13:14:29.905Z,78.52
2022-11-04T13:17:03.570Z,78.55
2022-11-04T13:19:53.057Z,78.67
2022-11-04T13:22:29.274Z,78.54
2022-11-04T13:24:59.925Z,78.60
2022-11-04T13:27:35.461Z,78.60
2022-11-04T13:30:19.613Z,78.63
2022-11-04T13:32:51.782Z,78.69
2022-11-04T13:35:25.651Z,78.79
2022-11-04T13:38:09.060Z,78.66
2022-11-04T13:40:47.135Z,78.83
2022-11-04T13:43:46.843Z,78.58
2022-11-04T13:46:18.217Z,78.59
2022-11-04T13:49:11.435Z,78.74
2022-11-04T13:51:46.031Z,78.75
2022-11-04T13:54:29.736Z,78.69
2022-11-04T13:57:06.020Z,78.84
2022-11-04T13:59:34.268Z,78.96
2022-11-04T14:02:12.112Z,78.77
2022-11-04T14:04:45.485Z,78.87
2022-11-04T14:07:18.198Z,78.93
2022-11-04T14:09:54.970Z,79.15
2022-11-04T14:12:28.989Z,79.06
2022-11-04T14:15:10.998Z,79.12
2022-11-04T14:17:39.173Z,79.12
2022-11-04T14:20:22.933Z,79.20
2022-11-04T14:22:57.099Z,79.26
2022-11-04T14:25:35.630Z,79.36
2022-11-04T14:28:09.534Z,79.41
2022-11-04T14:30:53.428Z,79.33
2022-11-04T14:33:36.547Z,79.27
2022-11-04T14:36:15.136Z,79.35
2022-11-04T14:38:44.884Z,79.37
2022-11-04T14:41:15.724Z,79.55
2022-11-04T14:43:46.650Z,79.48
2022-11-04T14:46:28.835Z,79.35
2022-11-04T14:49:01.254Z,79.47
2022-11-04T14:51:40.172Z,79.53
2022-11-04T14:54:22.970Z,79.71
2022-11-04T14:56:51.899Z,79.59
2022-11-04T14:59:27.506Z,79.54
2022-11-04T15:01:56.249Z,79.55
2022-11-04T15:04:28.088Z,79.58
2022-11-04T15:06:58.931Z,79.58
2022-11-04T15:09:28.771Z,79.64
2022-11-04T15:12:31.236Z,79.49
2022-11-04T15:15:00.620Z,79.95
2022-11-04T15:17:33.374Z,80.04
2022-11-04T15:20:04.710Z,80.11
2022-11-04T15:22:32.793Z,80.18
2022-11-04T15:25:06.076Z,80.29
2022-11-04T15:27:34.726Z,80.19
2022-11-04T15:30:04.461Z,80.36
2022-11-04T15:32:32.631Z,80.41
2022-11-04T15:35:01.162Z,80.19
2022-11-04T15:37:30.415Z,80.51
2022-11-04T15:39:59.124Z,80.52
2022-11-04T15:42:59.859Z,80.79
2022-11-04T15:45:46.130Z,80.92
2022-11-04T15:48:23.049Z,80.93
2022-11-04T15:51:04.847Z,80.82
2022-11-04T15:53:39.988Z,80.62
2022-11-04T15:56:08.133Z,80.84
2022-11-04T15:58:36.248Z,80.70
2022-11-04T16:01:04.520Z,81.07
2022-11-04T16:03:32.719Z,80.89
2022-11-04T16:06:06.532Z,81.01
2022-11-04T16:08:35.317Z,81.13
2022-11-04T16:11:17.644Z,80.97
2022-11-04T16:13:46.656Z,80.97
2022-11-04T16:16:25.944Z,81.10
2022-11-04T16:18:56.768Z,81.09
2022-11-04T16:21:28.045Z,80.85
2022-11-04T16:24:03.918Z,80.89
2022-11-04T16:26:38.931Z,81.10
2022-11-04T16:29:09.866Z,81.02
2022-11-04T16:31:37.954Z,81.15
2022-11-04T16:34:11.700Z,81.09
2022-11-04T16:36:40.089Z,81.09
2022-11-04T16:39:08.873Z,81.11
2022-11-04T16:41:39.924Z,81.22
2022-11-04T16:44:19.163Z,81.09
2022-11-04T16:46:47.312Z,81.17
2022-11-04T16:49:18.442Z,81.23
2022-11-04T16:51:48.042Z,81.19
2022-11-04T16:54:16.177Z,81.22
2022-11-04T16:56:45.541Z,81.32
2022-11-04T16:59:13.672Z,81.47
2022-11-04T17:01:42.098Z,81.46
2022-11-04T17:04:10.320Z,81.40
2022-11-04T17:06:39.094Z,81.60
2022-11-04T17:09:22.114Z,81.39
2022-11-04T17:11:50.159Z,81.53
2022-11-04T17:14:18.333Z,81.40
2022-11-04T17:16:46.446Z,81.27
2022-11-04T17:19:16.516Z,81.46
2022-11-04T17:21:45.511Z,81.50
2022-11-04T17:24:13.955Z,81.61
2022-11-04T17:26:42.273Z,81.65
2022-11-04T17:29:15.891Z,81.72
2022-11-04T17:31:45.674Z,81.65
2022-11-04T17:34:13.947Z,81.82
2022-11-04T17:36:42.104Z,81.62
2022-11-04T17:39:10.169Z,81.75
2022-11-04T17:41:56.915Z,81.62
2022-11-04T17:44:25.039Z,81.76
2022-11-04T17:46:53.225Z,81.73
2022-11-04T17:49:24.394Z,81.72
2022-11-04T17:51:58.662Z,81.95
2022-11-04T17:54:29.303Z,81.99
2022-11-04T17:56:58.302Z,81.93
2022-11-04T17:59:27.786Z,82.09
2022-11-04T18:01:57.646Z,82.05
2022-11-04T18:04:25.831Z,82.11
2022-11-04T18:06:59.849Z,82.23
2022-11-04T18:09:32.756Z,82.27
2022-11-04T18:12:19.442Z,82.16
2022-11-04T18:14:47.628Z,82.15
2022-11-04T18:17:16.162Z,82.36
2022-11-04T18:19:44.384Z,82.38
2022-11-04T18:22:12.695Z,82.22
2022-11-04T18:24:41.038Z,82.31
2022-11-04T18:27:09.260Z,82.20
2022-11-04T18:29:37.719Z,82.42
2022-11-04T18:32:06.273Z,82.35
2022-11-04T18:34:34.684Z,82.23
2022-11-04T18:37:03.716Z,82.28
2022-11-04T18:39:31.834Z,82.41
2022-11-04T18:41:59.875Z,82.35
2022-11-04T18:44:28.168Z,82.27
2022-11-04T18:46:56.337Z,82.46
2022-11-04T18:49:24.471Z,82.49
2022-11-04T18:51:52.857Z,82.45
2022-11-04T18:54:21.389Z,82.69
2022-11-04T18:56:49.553Z,82.51
2022-11-04T18:59:17.932Z,82.54
2022-11-04T19:01:46.200Z,82.70
2022-11-04T19:04:14.504Z,82.69
2022-11-04T19:06:44.500Z,82.60
2022-11-04T19:09:46.237Z,82.67
2022-11-04T19:12:25.366Z,82.62
2022-11-04T19:14:53.935Z,82.63
2022-11-04T19:17:22.962Z,82.67
2022-11-04T19:19:51.615Z,82.93
2022-11-04T19:22:19.817Z,83.05
2022-11-04T19:24:48.617Z,82.93
2022-11-04T19:27:20.075Z,83.06
2022-11-04T19:29:48.910Z,83.06
2022-11-04T19:32:17.089Z,83.09
2022-11-04T19:34:45.481Z,83.21
2022-11-04T19:37:14.232Z,83.34
2022-11-04T19:39:43.346Z,83.43
2022-11-04T19:42:31.066Z,83.50
2022-11-04T19:45:01.136Z,83.47
2022-11-04T19:47:30.128Z,83.37
2022-11-04T19:49:59.269Z,83.42
2022-11-04T19:52:28.215Z,83.53
2022-11-04T19:54:56.620Z,83.63
2022-11-04T19:57:24.768Z,83.65
2022-11-04T19:59:53.602Z,83.62
2022-11-04T20:02:21.994Z,83.56
2022-11-04T20:04:50.206Z,83.78
2022-11-04T20:07:18.904Z,83.84
2022-11-04T20:09:46.988Z,83.77
2022-11-04T20:12:33.582Z,83.87
2022-11-04T20:15:02.388Z,83.84
2022-11-04T20:17:32.979Z,84.04
2022-11-04T20:20:01.425Z,84.29
2022-11-04T20:22:29.842Z,84.20
2022-11-04T20:24:58.993Z,84.23
2022-11-04T20:27:28.364Z,84.39
2022-11-04T20:29:56.965Z,84.48
2022-11-04T20:32:25.931Z,84.41
2022-11-04T20:34:54.540Z,84.56
2022-11-04T20:37:23.170Z,84.61
2022-11-04T20:39:52.031Z,84.60
2022-11-04T20:42:21.396Z,84.80
2022-11-04T20:44:52.593Z,84.95
2022-11-04T20:47:21.983Z,84.95
2022-11-04T20:49:50.908Z,85.12
2022-11-04T20:52:19.696Z,85.27
2022-11-04T20:54:47.846Z,85.32
2022-11-04T20:57:17.033Z,85.59
2022-11-04T20:59:45.924Z,85.59
2022-11-04T21:02:14.522Z,85.60
2022-11-04T21:04:42.711Z,85.69
2022-11-04T21:07:11.284Z,85.61
2022-11-04T21:09:39.774Z,85.75
2022-11-04T21:12:08.035Z,85.68
2022-11-04T21:14:36.182Z,85.73
2022-11-04T21:17:05.930Z,85.84
2022-11-04T21:19:34.256Z,85.85
2022-11-04T21:22:03.113Z,85.79
2022-11-04T21:24:37.921Z,85.90
2022-11-04T21:27:07.522Z,86.06
2022-11-04T21:29:36.594Z,86.12
2022-11-04T21:32:04.974Z,86.31
2022-11-04T21:34:33.218Z,86.44
2022-11-04T21:37:01.341Z,86.55
2022-11-04T21:39:29.533Z,86.86
2022-11-04T21:41:59.190Z,86.88
2022-11-04T21:44:27.372Z,87.00
2022-11-04T21:46:55.414Z,87.03
2022-11-04T21:49:23.765Z,87.29
2022-11-04T21:51:51.817Z,87.26
2022-11-04T21:54:20.001Z,87.33
2022-11-04T21:56:50.602Z,87.52
2022-11-04T21:59:18.829Z,87.55
2022-11-04T22:01:47.005Z,87.56
2022-11-04T22:04:15.813Z,87.62
2022-11-04T22:06:45.446Z,87.61
2022-11-04T22:09:13.516Z,87.64
2022-11-04T22:11:41.772Z,87.77
2022-11-04T22:14:12.200Z,87.85
2022-11-04T22:16:40.509Z,87.86
2022-11-04T22:19:11.057Z,87.92
2022-11-04T22:21:41.043Z,88.05
2022-11-04T22:24:15.697Z,88.22
2022-11-04T22:26:44.385Z,88.11
2022-11-04T22:29:12.589Z,88.18
2022-11-04T22:31:42.948Z,88.37
2022-11-04T22:34:11.107Z,88.26
2022-11-04T22:36:39.748Z,88.39
2022-11-04T22:39:11.880Z,88.71
2022-11-04T22:41:40.255Z,88.75
2022-11-04T22:44:09.367Z,88.70
2022-11-04T22:46:37.401Z,88.73
2022-11-04T22:49:05.436Z,88.95
2022-11-04T22:51:33.476Z,88.97
2022-11-04T22:54:07.558Z,88.64
2022-11-04T22:56:36.907Z,88.90
2022-11-04T22:59:05.304Z,88.93
2022-11-04T23:01:34.151Z,88.92
2022-11-04T23:04:03.086Z,89.03
2022-11-04T23:06:31.821Z,89.14
2022-11-04T23:09:00.975Z,89.09
2022-11-04T23:11:49.158Z,89.01
2022-11-04T23:14:40.356Z,88.91
2022-11-04T23:17:36.997Z,88.84
2022-11-04T23:20:11.469Z,88.74
2022-11-04T23:22:58.414Z,88.76
2022-11-04T23:25:26.927Z,88.38
2022-11-04T23:28:14.720Z,88.58
2022-11-04T23:30:45.636Z,88.73
2022-11-04T23:33:15.719Z,88.96
2022-11-04T23:36:05.308Z,88.85
2022-11-04T23:38:35.324Z,88.75
2022-11-04T23:41:25.458Z,88.83
2022-11-04T23:43:53.949Z,88.85
2022-11-04T23:46:43.375Z,88.91
2022-11-04T23:49:31.039Z,89.15
2022-11-04T23:52:17.735Z,89.03
2022-11-04T23:55:04.905Z,88.88
2022-11-04T23:57:51.566Z,88.88
